Time;durP1;ratioP1;P1;durP2;ratioP2;P2;SDS_P1;SDS_P2;PMS_P1;PMS_P2;Temp;Humidity;BMP_temperature;BMP_pressure;BME280_temperature;BME280_humidity;BME280_pressure;Samples;Min_cycle;Max_cycle;Signal;HPM_P1;HPM_P2
2023/02/22 00:00:51;;;;;;;6.38;2.97;;;5.20;99.90;;;;;;5010897;28;20042;-78
2023/02/22 00:03:26;;;;;;;9.40;3.05;;;5.10;99.90;;;;;;4999210;28;20022;-78
2023/02/22 00:06:01;;;;;;;14.25;2.80;;;5.00;99.90;;;;;;5016077;28;20041;-80
2023/02/22 00:08:30;;;;;;;3.25;1.88;;;5.10;99.90;;;;;;5004112;28;20040;-79
2023/02/22 00:10:58;;;;;;;10.52;4.35;;;5.20;99.90;;;;;;5029523;28;20037;-79
2023/02/22 00:13:24;;;;;;;7.13;3.38;;;5.30;99.90;;;;;;5002952;28;20033;-77
2023/02/22 00:15:49;;;;;;;12.50;3.33;;;5.50;99.90;;;;;;5011440;28;20033;-78
2023/02/22 00:18:18;;;;;;;5.38;2.88;;;5.50;99.90;;;;;;5021468;28;20147;-78
2023/02/22 00:20:44;;;;;;;7.30;3.97;;;5.50;99.90;;;;;;5011122;28;20041;-79
2023/02/22 00:23:20;;;;;;;14.32;3.58;;;5.50;99.90;;;;;;4989062;28;20057;-79
2023/02/22 00:25:50;;;;;;;5.88;3.10;;;5.60;99.90;;;;;;5010547;28;20048;-79
2023/02/22 00:28:17;;;;;;;7.07;3.40;;;5.60;99.90;;;;;;5003105;28;20037;-78
2023/02/22 00:30:44;;;;;;;10.32;4.03;;;5.60;99.90;;;;;;5009095;28;20044;-79
2023/02/22 00:33:12;;;;;;;6.88;3.65;;;5.40;99.90;;;;;;5003988;28;20033;-78
2023/02/22 00:35:38;;;;;;;10.35;3.97;;;5.40;99.90;;;;;;5009438;28;20033;-79
2023/02/22 00:38:04;;;;;;;14.32;4.20;;;5.40;99.90;;;;;;5004762;28;20095;-78
2023/02/22 00:40:34;;;;;;;8.98;4.30;;;5.40;99.90;;;;;;5007085;28;20029;-79
2023/02/22 00:43:03;;;;;;;6.72;3.72;;;5.40;99.90;;;;;;4989010;28;20064;-79
2023/02/22 00:45:31;;;;;;;8.73;3.85;;;5.60;99.90;;;;;;5008005;28;20033;-79
2023/02/22 00:47:59;;;;;;;9.30;4.15;;;5.60;99.90;;;;;;5012713;28;20037;-79
2023/02/22 00:50:28;;;;;;;10.50;3.95;;;5.60;99.90;;;;;;5000918;28;20034;-79
2023/02/22 00:52:55;;;;;;;12.80;4.53;;;5.60;99.90;;;;;;5018815;28;20041;-79
2023/02/22 00:55:31;;;;;;;7.78;3.47;;;5.70;99.90;;;;;;5023446;28;20542;-79
2023/02/22 00:57:58;;;;;;;10.77;3.67;;;5.70;99.90;;;;;;5005133;28;20112;-79
2023/02/22 01:00:40;;;;;;;15.63;3.67;;;5.80;99.90;;;;;;5022180;28;20116;-79
2023/02/22 01:03:09;;;;;;;8.88;3.97;;;5.90;99.90;;;;;;5021289;28;20520;-79
2023/02/22 01:05:37;;;;;;;7.07;3.40;;;5.90;99.90;;;;;;5007370;28;20055;-79
2023/02/22 01:08:05;;;;;;;10.52;4.28;;;5.80;99.90;;;;;;5004364;28;20029;-79
2023/02/22 01:10:32;;;;;;;8.77;3.22;;;5.70;99.90;;;;;;5006773;28;20103;-79
2023/02/22 01:12:59;;;;;;;15.70;4.38;;;5.60;99.90;;;;;;5005028;28;20029;-78
2023/02/22 01:15:29;;;;;;;14.20;3.90;;;5.60;99.90;;;;;;5006215;28;20029;-78
2023/02/22 01:17:57;;;;;;;8.48;3.53;;;5.80;99.90;;;;;;5005309;28;20033;-79
2023/02/22 01:20:26;;;;;;;11.15;5.32;;;6.00;99.90;;;;;;5005313;28;20385;-78
2023/02/22 01:22:55;;;;;;;10.48;5.50;;;6.10;99.90;;;;;;5005757;28;20481;-79
2023/02/22 01:25:24;;;;;;;7.40;3.65;;;6.30;99.90;;;;;;5005307;28;20116;-79
2023/02/22 01:27:51;;;;;;;6.43;2.78;;;6.30;99.90;;;;;;5005665;28;20091;-80
2023/02/22 01:30:25;;;;;;;8.82;3.40;;;6.20;99.90;;;;;;5002410;28;20433;-79
2023/02/22 01:32:51;;;;;;;8.65;2.88;;;6.00;99.90;;;;;;5006619;28;20045;-79
2023/02/22 01:35:22;;;;;;;9.73;4.18;;;5.80;99.90;;;;;;4996846;28;20026;-79
2023/02/22 01:37:47;;;;;;;8.30;3.97;;;5.90;99.90;;;;;;5023123;28;20125;-79
2023/02/22 01:40:25;;;;;;;7.70;2.80;;;6.00;99.90;;;;;;5021830;28;20467;-79
2023/02/22 01:42:53;;;;;;;6.00;3.30;;;5.90;99.90;;;;;;5005071;28;20095;-79
2023/02/22 01:45:31;;;;;;;5.95;3.53;;;5.80;99.90;;;;;;5015041;28;20038;-80
2023/02/22 01:48:23;;;;;;;10.98;3.30;;;5.70;99.90;;;;;;5021997;28;20543;-79
2023/02/22 01:51:16;;;;;;;8.38;3.28;;;5.60;99.90;;;;;;5008809;28;20033;-78
2023/02/22 01:54:01;;;;;;;8.75;3.20;;;5.40;99.90;;;;;;5000566;28;20044;-79
2023/02/22 01:56:31;;;;;;;4.90;3.10;;;5.20;99.90;;;;;;5010131;28;20056;-79
2023/02/22 01:59:10;;;;;;;8.60;3.22;;;5.10;99.90;;;;;;5026529;28;20026;-79
2023/02/22 02:01:38;;;;;;;3.30;2.25;;;5.20;99.90;;;;;;5008490;28;20405;-79
2023/02/22 02:04:14;;;;;;;10.60;4.10;;;5.20;99.90;;;;;;4999947;28;20084;-79
2023/02/22 02:06:41;;;;;;;5.80;3.80;;;5.20;99.90;;;;;;5000485;28;20513;-79
2023/02/22 02:09:19;;;;;;;9.02;3.40;;;5.10;99.90;;;;;;4993092;28;20366;-78
2023/02/22 02:11:45;;;;;;;7.65;3.67;;;5.10;99.90;;;;;;4983677;28;20041;-79
2023/02/22 02:14:12;;;;;;;5.50;3.08;;;5.00;99.90;;;;;;5021111;28;20488;-79
2023/02/22 02:16:44;;;;;;;6.13;3.10;;;5.00;99.90;;;;;;5001219;28;20378;-79
2023/02/22 02:19:37;;;;;;;7.38;3.63;;;5.00;99.90;;;;;;5008555;28;20030;-78
2023/02/22 02:23:05;;;;;;;5.60;2.60;;;4.90;99.90;;;;;;5025089;28;20117;-79
2023/02/22 02:26:19;;;;;;;13.45;3.17;;;4.90;99.90;;;;;;4947273;29;20164;-79
2023/02/22 02:28:53;;;;;;;5.90;3.55;;;4.90;99.90;;;;;;5017566;28;20044;-79
2023/02/22 02:31:55;;;;;;;5.32;3.33;;;4.90;99.90;;;;;;4980661;28;20034;-78
2023/02/22 02:34:39;;;;;;;4.88;2.97;;;4.70;99.90;;;;;;5000247;28;20036;-79
2023/02/22 02:37:49;;;;;;;17.63;3.08;;;4.80;99.90;;;;;;4998753;28;20033;-76
2023/02/22 02:40:31;;;;;;;7.15;3.95;;;4.70;99.90;;;;;;5014726;28;20045;-79
2023/02/22 02:43:13;;;;;;;7.13;3.22;;;4.80;99.90;;;;;;5023738;28;20040;-79
2023/02/22 02:46:20;;;;;;;12.23;4.57;;;4.90;99.90;;;;;;5011852;28;20420;-79
2023/02/22 02:49:03;;;;;;;11.05;3.60;;;5.00;99.90;;;;;;5017368;28;20038;-78
2023/02/22 02:51:36;;;;;;;15.63;5.28;;;5.10;99.90;;;;;;4983035;28;20026;-79
2023/02/22 02:54:03;;;;;;;6.93;3.35;;;5.10;99.90;;;;;;5007939;28;20112;-78
2023/02/22 02:56:29;;;;;;;8.73;3.17;;;5.10;99.90;;;;;;5030430;28;20025;-79
2023/02/22 02:58:56;;;;;;;8.23;4.50;;;4.80;99.90;;;;;;5006985;28;20060;-78
2023/02/22 03:02:03;;;;;;;11.63;3.92;;;4.80;99.90;;;;;;5024296;23;20477;-73
2023/02/22 03:04:34;;;;;;;10.65;4.13;;;4.80;99.90;;;;;;4980702;28;20038;-73
2023/02/22 03:07:30;;;;;;;8.10;3.55;;;4.80;99.90;;;;;;5022385;28;20026;-73
2023/02/22 03:10:10;;;;;;;8.18;3.58;;;5.00;99.90;;;;;;5003074;28;20038;-73
2023/02/22 03:12:53;;;;;;;5.53;3.00;;;5.10;99.90;;;;;;5005037;28;20038;-73
2023/02/22 03:16:02;;;;;;;10.38;3.22;;;5.10;99.90;;;;;;4989047;28;20033;-73
2023/02/22 03:18:55;;;;;;;6.72;3.40;;;5.00;99.90;;;;;;4985735;28;20445;-73
2023/02/22 03:22:07;;;;;;;7.38;3.97;;;5.00;99.90;;;;;;4985490;28;20482;-73
2023/02/22 03:24:52;;;;;;;8.75;2.60;;;5.00;99.90;;;;;;4976150;28;20039;-73
2023/02/22 03:27:30;;;;;;;7.30;3.03;;;4.90;99.90;;;;;;4993343;28;20085;-73
2023/02/22 03:30:04;;;;;;;8.73;3.30;;;4.80;99.90;;;;;;4975257;28;20038;-73
2023/02/22 03:32:36;;;;;;;5.03;2.35;;;4.80;99.90;;;;;;4972234;28;20022;-73
2023/02/22 03:35:20;;;;;;;9.43;3.88;;;4.60;99.90;;;;;;4988897;28;20054;-73
2023/02/22 03:37:52;;;;;;;5.53;2.90;;;4.60;99.90;;;;;;4988528;28;20037;-74
2023/02/22 03:40:27;;;;;;;6.47;3.53;;;4.70;99.90;;;;;;4988749;28;20056;-73
2023/02/22 03:43:00;;;;;;;10.95;4.03;;;4.60;99.90;;;;;;4987027;28;20038;-73
2023/02/22 03:45:29;;;;;;;5.00;3.13;;;4.60;99.90;;;;;;4988988;28;20021;-73
2023/02/22 03:48:17;;;;;;;4.50;2.58;;;4.60;99.90;;;;;;4986947;28;20030;-73
2023/02/22 03:50:43;;;;;;;5.68;3.25;;;4.50;99.90;;;;;;5000375;28;20045;-73
2023/02/22 03:53:09;;;;;;;8.82;3.33;;;4.50;99.90;;;;;;4986801;28;20501;-73
2023/02/22 03:55:35;;;;;;;4.95;2.42;;;4.40;99.90;;;;;;4988625;28;20049;-73
2023/02/22 03:58:09;;;;;;;9.95;3.17;;;4.20;99.90;;;;;;4986638;28;20084;-73
2023/02/22 04:00:35;;;;;;;6.57;3.22;;;4.10;99.90;;;;;;4999954;28;20030;-73
2023/02/22 04:03:02;;;;;;;7.97;3.25;;;4.10;99.90;;;;;;4986436;28;20057;-73
2023/02/22 04:05:28;;;;;;;11.45;3.33;;;4.10;99.90;;;;;;5000108;28;20056;-73
2023/02/22 04:07:55;;;;;;;5.82;2.67;;;4.00;99.90;;;;;;5003670;28;20038;-73
2023/02/22 04:10:22;;;;;;;6.38;2.83;;;4.00;99.90;;;;;;4987671;28;20030;-73
2023/02/22 04:12:49;;;;;;;7.30;3.38;;;4.00;99.90;;;;;;5003780;28;20449;-73
2023/02/22 04:15:22;;;;;;;7.63;3.63;;;3.90;99.90;;;;;;4988018;28;20060;-74
2023/02/22 04:17:48;;;;;;;5.82;3.00;;;4.00;99.90;;;;;;4986524;28;20092;-73
2023/02/22 04:20:18;;;;;;;7.18;3.58;;;3.80;99.90;;;;;;4999484;28;20030;-73
2023/02/22 04:22:46;;;;;;;6.20;2.75;;;3.80;99.90;;;;;;4986526;28;20036;-73
2023/02/22 04:25:12;;;;;;;5.97;3.15;;;3.80;99.90;;;;;;4987837;28;20038;-73
2023/02/22 04:27:38;;;;;;;4.32;2.90;;;3.60;99.90;;;;;;5003549;28;20121;-73
2023/02/22 04:30:04;;;;;;;6.28;3.72;;;3.70;99.90;;;;;;4999478;28;20034;-73
2023/02/22 04:32:30;;;;;;;8.20;3.60;;;3.70;99.90;;;;;;5003406;28;20034;-73
2023/02/22 04:34:55;;;;;;;5.25;3.35;;;3.60;99.90;;;;;;4999451;28;20037;-73
2023/02/22 04:37:21;;;;;;;5.78;2.67;;;3.60;99.90;;;;;;5003456;28;20390;-74
2023/02/22 04:39:47;;;;;;;5.85;3.00;;;3.60;99.90;;;;;;4987514;28;20117;-73
2023/02/22 04:42:12;;;;;;;9.52;4.20;;;3.60;99.90;;;;;;5002840;28;20033;-73
2023/02/22 04:44:38;;;;;;;6.88;3.58;;;3.60;99.90;;;;;;5003045;28;20038;-73
2023/02/22 04:47:04;;;;;;;7.05;3.35;;;3.50;99.90;;;;;;4999970;28;20026;-72
2023/02/22 04:49:29;;;;;;;5.95;3.42;;;3.60;99.90;;;;;;5004808;28;20049;-74
2023/02/22 04:51:55;;;;;;;16.20;4.03;;;3.60;99.90;;;;;;4997260;28;20034;-73
2023/02/22 04:54:21;;;;;;;10.27;4.18;;;3.70;99.90;;;;;;5007208;28;20037;-73
2023/02/22 04:56:47;;;;;;;5.38;3.40;;;3.70;99.90;;;;;;4995496;28;20446;-72
2023/02/22 04:59:12;;;;;;;9.27;4.80;;;3.70;99.90;;;;;;5008394;28;20116;-72
2023/02/22 05:01:38;;;;;;;9.98;3.95;;;3.80;99.90;;;;;;4994359;28;20030;-73
2023/02/22 05:04:06;;;;;;;10.07;4.53;;;3.80;99.90;;;;;;5009269;28;20040;-72
2023/02/22 05:06:32;;;;;;;8.10;4.03;;;3.90;99.90;;;;;;4998516;28;20549;-72
2023/02/22 05:08:57;;;;;;;5.30;3.00;;;3.90;99.90;;;;;;4990444;28;20029;-73
2023/02/22 05:11:23;;;;;;;9.13;3.58;;;3.90;99.90;;;;;;4999389;28;20038;-73
2023/02/22 05:13:49;;;;;;;8.57;4.65;;;4.00;99.90;;;;;;4995309;28;20058;-73
2023/02/22 05:16:15;;;;;;;7.20;3.70;;;4.00;99.90;;;;;;4985990;28;20034;-72
2023/02/22 05:18:41;;;;;;;15.48;3.53;;;4.00;99.90;;;;;;4979844;28;20034;-72
2023/02/22 05:21:07;;;;;;;12.10;4.38;;;3.90;99.90;;;;;;4990061;28;20597;-72
2023/02/22 05:23:33;;;;;;;12.88;4.85;;;3.90;99.90;;;;;;4996975;28;20033;-73
2023/02/22 05:26:00;;;;;;;8.40;3.05;;;3.80;99.90;;;;;;4993206;28;20030;-70
2023/02/22 05:28:26;;;;;;;5.90;2.85;;;3.90;99.90;;;;;;5003446;28;20030;-73
2023/02/22 05:30:52;;;;;;;5.40;3.35;;;3.80;99.90;;;;;;4998569;28;20041;-72
2023/02/22 05:33:17;;;;;;;12.90;6.32;;;3.80;99.90;;;;;;5002307;28;20034;-70
2023/02/22 05:35:45;;;;;;;20.38;5.18;;;4.20;99.90;;;;;;4998481;28;20034;-70
2023/02/22 05:38:13;;;;;;;14.95;6.85;;;4.50;99.90;;;;;;5001966;28;20431;-69
2023/02/22 05:40:40;;;;;;;8.32;4.00;;;4.40;99.90;;;;;;5002271;28;20470;-74
2023/02/22 05:43:07;;;;;;;7.88;3.28;;;4.50;99.90;;;;;;4981119;28;20030;-74
2023/02/22 05:45:33;;;;;;;31.13;4.97;;;4.50;99.90;;;;;;4978461;28;20041;-68
2023/02/22 05:47:59;;;;;;;5.15;3.55;;;4.30;99.90;;;;;;5002383;28;20033;-70
2023/02/22 05:50:25;;;;;;;8.40;4.70;;;4.10;99.90;;;;;;5001431;28;20091;-71
2023/02/22 05:52:52;;;;;;;6.38;3.55;;;4.00;99.90;;;;;;5005055;28;20048;-69
2023/02/22 05:55:21;;;;;;;13.65;3.70;;;4.10;99.90;;;;;;5007116;28;20096;-70
2023/02/22 05:57:48;;;;;;;5.35;3.85;;;4.10;99.90;;;;;;4979415;28;20037;-72
2023/02/22 06:00:27;;;;;;;6.43;3.35;;;4.10;99.90;;;;;;4972959;28;20552;-71
2023/02/22 06:03:00;;;;;;;12.00;3.47;;;4.20;99.90;;;;;;5005660;28;20378;-71
2023/02/22 06:05:26;;;;;;;15.25;4.47;;;4.10;99.90;;;;;;5000220;28;20495;-69
2023/02/22 06:07:52;;;;;;;9.10;4.45;;;4.10;99.90;;;;;;5005726;28;20037;-71
2023/02/22 06:10:19;;;;;;;7.60;2.80;;;4.10;99.90;;;;;;4999583;28;20029;-69
2023/02/22 06:12:46;;;;;;;11.60;3.75;;;4.10;99.90;;;;;;5005382;28;20033;-70
2023/02/22 06:15:17;;;;;;;8.80;3.78;;;4.10;99.90;;;;;;5001883;28;20045;-70
2023/02/22 06:17:43;;;;;;;9.00;3.28;;;4.10;99.90;;;;;;5005870;28;20026;-72
2023/02/22 06:20:12;;;;;;;8.10;4.05;;;4.00;99.90;;;;;;4998462;28;20050;-71
2023/02/22 06:22:40;;;;;;;14.07;4.15;;;4.00;99.90;;;;;;5005482;28;20034;-69
2023/02/22 06:25:07;;;;;;;11.82;4.10;;;4.00;99.90;;;;;;4988940;28;20101;-71
2023/02/22 06:27:33;;;;;;;7.15;3.13;;;4.00;99.90;;;;;;5005560;28;20108;-71
2023/02/22 06:30:00;;;;;;;6.18;3.63;;;4.00;99.90;;;;;;4988094;28;20034;-71
2023/02/22 06:32:26;;;;;;;12.18;5.20;;;4.00;99.90;;;;;;5005398;28;20029;-71
2023/02/22 06:34:52;;;;;;;6.60;3.40;;;4.00;99.90;;;;;;4988520;28;20392;-71
2023/02/22 06:37:18;;;;;;;15.18;4.88;;;4.00;99.90;;;;;;5004079;28;20085;-71
2023/02/22 06:39:43;;;;;;;8.02;3.38;;;4.10;99.90;;;;;;4993773;28;20035;-71
2023/02/22 06:42:09;;;;;;;16.80;5.20;;;4.10;99.90;;;;;;4999406;28;20081;-71
2023/02/22 06:44:35;;;;;;;8.00;3.72;;;4.10;99.90;;;;;;4981585;28;20537;-71
2023/02/22 06:47:01;;;;;;;10.52;4.75;;;4.10;99.90;;;;;;5002994;28;20037;-71
2023/02/22 06:49:27;;;;;;;16.52;6.38;;;4.20;99.90;;;;;;4996229;28;20030;-71
2023/02/22 06:51:53;;;;;;;10.15;5.13;;;4.30;99.90;;;;;;4981870;28;20027;-71
2023/02/22 06:54:21;;;;;;;19.48;7.78;;;4.20;99.90;;;;;;4992831;28;20494;-71
2023/02/22 06:56:48;;;;;;;14.60;6.25;;;4.30;99.90;;;;;;4996945;28;20432;-70
2023/02/22 06:59:14;;;;;;;24.48;5.20;;;4.40;99.90;;;;;;4983666;28;20088;-71
2023/02/22 07:01:43;;;;;;;12.57;5.72;;;4.20;99.90;;;;;;4984823;28;20030;-71
2023/02/22 07:04:10;;;;;;;16.83;5.93;;;4.50;99.90;;;;;;4985287;28;20035;-71
2023/02/22 07:06:36;;;;;;;19.02;5.70;;;4.60;99.90;;;;;;4977651;28;20067;-71
2023/02/22 07:09:02;;;;;;;12.07;5.63;;;4.70;99.90;;;;;;4986790;28;20438;-71
2023/02/22 07:11:28;;;;;;;17.45;5.35;;;4.80;99.90;;;;;;5000665;28;20117;-71
2023/02/22 07:13:54;;;;;;;28.00;6.68;;;4.90;99.90;;;;;;5009013;28;20117;-71
2023/02/22 07:16:20;;;;;;;17.77;7.47;;;5.00;99.90;;;;;;4999197;28;20053;-71
2023/02/22 07:18:46;;;;;;;33.05;6.40;;;5.00;99.90;;;;;;5008112;28;20038;-72
2023/02/22 07:21:11;;;;;;;12.02;7.05;;;5.10;99.90;;;;;;4989356;28;21417;-71
2023/02/22 07:23:37;;;;;;;17.50;7.35;;;5.00;99.90;;;;;;4994709;28;20030;-71
2023/02/22 07:26:05;;;;;;;15.93;6.90;;;4.90;99.90;;;;;;4998983;28;20037;-71
2023/02/22 07:28:31;;;;;;;13.23;7.00;;;4.70;99.90;;;;;;5006105;28;20716;-70
2023/02/22 07:30:57;;;;;;;13.48;6.13;;;4.80;99.90;;;;;;5007428;28;20061;-70
2023/02/22 07:33:23;;;;;;;16.20;6.15;;;4.80;99.90;;;;;;5004801;28;20448;-71
2023/02/22 07:35:49;;;;;;;17.40;6.85;;;4.90;99.90;;;;;;5004791;28;20038;-71
2023/02/22 07:38:18;;;;;;;56.55;6.15;;;4.80;99.90;;;;;;4986127;28;20033;-72
2023/02/22 07:40:44;;;;;;;13.32;6.40;;;4.80;99.90;;;;;;4992253;28;20091;-70
2023/02/22 07:43:21;;;;;;;17.15;6.35;;;4.80;99.90;;;;;;4999552;28;20031;-71
2023/02/22 07:45:50;;;;;;;16.27;8.90;;;4.80;99.90;;;;;;4982192;28;20042;-71
2023/02/22 07:48:19;;;;;;;19.50;9.18;;;4.80;99.90;;;;;;4994254;28;20060;-72
2023/02/22 07:50:45;;;;;;;17.13;7.15;;;4.80;99.90;;;;;;5008317;28;20567;-71
2023/02/22 07:53:18;;;;;;;21.48;8.07;;;4.80;99.90;;;;;;5003833;28;20061;-71
2023/02/22 07:55:45;;;;;;;13.07;6.72;;;4.90;99.90;;;;;;5007645;28;20060;-71
2023/02/22 07:58:14;;;;;;;10.60;7.18;;;5.00;99.90;;;;;;5003641;28;20038;-70
2023/02/22 08:00:42;;;;;;;16.42;8.57;;;5.10;99.90;;;;;;4974938;28;20041;-71
2023/02/22 08:03:13;;;;;;;14.52;6.50;;;5.20;99.90;;;;;;5003567;28;20112;-71
2023/02/22 08:05:44;;;;;;;15.60;8.00;;;5.40;99.90;;;;;;5002066;28;20382;-71
2023/02/22 08:08:09;;;;;;;17.10;9.85;;;5.60;99.90;;;;;;4983844;28;20046;-71
2023/02/22 08:10:36;;;;;;;12.60;6.85;;;5.60;99.90;;;;;;4986375;28;20030;-71
2023/02/22 08:13:04;;;;;;;16.33;6.68;;;5.80;99.90;;;;;;4991966;28;20038;-72
2023/02/22 08:15:33;;;;;;;17.27;7.63;;;5.80;99.90;;;;;;4989269;28;20034;-72
2023/02/22 08:18:01;;;;;;;12.40;6.07;;;5.90;99.90;;;;;;4982804;28;20038;-73
2023/02/22 08:20:28;;;;;;;13.43;6.22;;;5.80;99.90;;;;;;4981875;28;20026;-73
2023/02/22 08:22:56;;;;;;;13.00;6.00;;;5.90;99.90;;;;;;4964403;28;20050;-73
2023/02/22 08:25:26;;;;;;;11.02;5.22;;;6.00;99.90;;;;;;4973049;28;20026;-74
2023/02/22 08:27:57;;;;;;;8.50;4.75;;;6.10;99.90;;;;;;4985625;28;20045;-74
2023/02/22 08:30:24;;;;;;;12.18;6.50;;;6.20;99.90;;;;;;4985178;28;20034;-74
2023/02/22 08:32:50;;;;;;;9.63;4.50;;;6.30;99.90;;;;;;4990589;28;20031;-74
2023/02/22 08:35:19;;;;;;;6.35;4.70;;;6.30;99.90;;;;;;4985370;28;20108;-74
2023/02/22 08:37:51;;;;;;;9.63;3.88;;;6.40;99.90;;;;;;4987434;28;20034;-74
2023/02/22 08:40:21;;;;;;;9.27;4.90;;;6.50;99.90;;;;;;4974600;28;20088;-74
2023/02/22 08:42:47;;;;;;;7.80;4.50;;;6.60;99.90;;;;;;4986376;28;20034;-74
2023/02/22 08:45:13;;;;;;;12.98;4.65;;;6.70;99.90;;;;;;5006638;28;20472;-74
2023/02/22 08:47:40;;;;;;;11.30;4.80;;;6.80;99.90;;;;;;4974096;28;20069;-73
2023/02/22 08:50:08;;;;;;;11.57;5.57;;;6.90;99.90;;;;;;4967226;28;20036;-74
2023/02/22 08:52:34;;;;;;;10.50;4.95;;;7.00;99.90;;;;;;5003938;28;20120;-74
2023/02/22 08:55:00;;;;;;;13.80;5.05;;;7.10;99.90;;;;;;4997971;28;20149;-74
2023/02/22 08:57:26;;;;;;;8.48;4.70;;;7.20;99.90;;;;;;4989262;28;20045;-74
2023/02/22 08:59:52;;;;;;;8.50;4.38;;;7.40;99.90;;;;;;5014131;23;20038;-75
2023/02/22 09:02:20;;;;;;;6.75;3.85;;;7.40;99.90;;;;;;4995516;28;20038;-76
2023/02/22 09:04:47;;;;;;;9.45;4.55;;;7.50;99.90;;;;;;4988576;28;20852;-75
2023/02/22 09:07:14;;;;;;;11.70;4.30;;;7.60;99.90;;;;;;4981026;28;20034;-75
2023/02/22 09:09:44;;;;;;;11.82;4.20;;;7.70;99.90;;;;;;4972015;28;20441;-76
2023/02/22 09:12:10;;;;;;;10.60;4.72;;;7.90;99.90;;;;;;4983864;28;20674;-76
2023/02/22 09:14:36;;;;;;;11.20;5.70;;;8.00;99.90;;;;;;4998868;28;20034;-76
2023/02/22 09:17:02;;;;;;;10.98;4.50;;;8.10;99.90;;;;;;4978722;28;20504;-76
2023/02/22 09:19:28;;;;;;;8.40;4.65;;;8.30;99.90;;;;;;4972477;28;20038;-75
2023/02/22 09:21:56;;;;;;;11.38;5.13;;;8.30;99.90;;;;;;4981747;28;20474;-76
2023/02/22 09:24:22;;;;;;;10.13;4.30;;;8.40;99.90;;;;;;5006322;28;20023;-76
2023/02/22 09:26:55;;;;;;;11.75;4.50;;;8.40;99.90;;;;;;4994989;28;20037;-76
2023/02/22 09:29:23;;;;;;;12.50;5.18;;;8.40;99.90;;;;;;4971775;28;20499;-75
2023/02/22 09:31:51;;;;;;;9.07;4.30;;;8.60;99.90;;;;;;4995976;28;20042;-76
2023/02/22 09:34:21;;;;;;;7.72;4.18;;;8.50;99.90;;;;;;4973747;28;20058;-76
2023/02/22 09:36:48;;;;;;;13.52;4.85;;;8.70;99.90;;;;;;4981130;28;20486;-75
2023/02/22 09:39:16;;;;;;;8.07;4.13;;;8.90;99.90;;;;;;4992224;28;20038;-76
2023/02/22 09:42:20;;;;;;;17.30;4.85;;;9.00;99.90;;;;;;4996215;28;20028;-76
2023/02/22 09:44:54;;;;;;;10.45;5.53;;;9.10;99.90;;;;;;4971652;28;20042;-76
2023/02/22 09:47:47;;;;;;;12.25;5.75;;;9.30;99.90;;;;;;4974426;28;20030;-76
2023/02/22 09:50:21;;;;;;;8.30;4.60;;;9.50;99.90;;;;;;4974369;28;20034;-75
2023/02/22 09:53:03;;;;;;;9.45;5.47;;;9.60;99.90;;;;;;4985504;28;20036;-76
2023/02/22 09:55:44;;;;;;;9.75;4.80;;;9.60;99.90;;;;;;5003052;28;20030;-75
2023/02/22 09:58:32;;;;;;;10.68;4.95;;;9.70;99.90;;;;;;4984640;28;20038;-76
2023/02/22 10:01:51;;;;;;;10.07;5.10;;;9.60;99.90;;;;;;5004141;28;20045;-76
2023/02/22 10:04:40;;;;;;;18.20;4.88;;;10.00;99.90;;;;;;4863229;29;20035;-76
2023/02/22 10:07:54;;;;;;;14.32;4.53;;;10.10;99.90;;;;;;4900820;29;20033;-76
2023/02/22 10:10:23;;;;;;;5.80;4.00;;;9.80;99.90;;;;;;4996964;28;20120;-76
2023/02/22 10:13:33;;;;;;;8.15;3.97;;;10.00;99.90;;;;;;4984648;28;20040;-76
2023/02/22 10:16:26;;;;;;;8.13;4.57;;;10.20;99.90;;;;;;4992865;28;20042;-76
2023/02/22 10:19:07;;;;;;;19.02;5.60;;;10.40;99.90;;;;;;4981557;28;20117;-77
2023/02/22 10:22:15;;;;;;;10.50;5.60;;;10.30;99.90;;;;;;4964663;28;20333;-76
2023/02/22 10:25:03;;;;;;;9.38;4.05;;;10.50;99.90;;;;;;4953675;28;20498;-76
2023/02/22 10:27:40;;;;;;;11.90;4.13;;;10.70;99.90;;;;;;4975813;28;20022;-76
2023/02/22 10:30:23;;;;;;;6.75;3.75;;;10.80;99.90;;;;;;4988455;28;20045;-74
2023/02/22 10:33:13;;;;;;;9.70;4.88;;;10.80;99.90;;;;;;4986254;28;20053;-75
2023/02/22 10:35:40;;;;;;;6.63;3.85;;;10.90;99.90;;;;;;4988584;28;20432;-75
2023/02/22 10:38:24;;;;;;;7.60;4.03;;;11.10;99.90;;;;;;4970295;28;20026;-80
2023/02/22 10:41:09;;;;;;;7.93;4.28;;;11.10;99.90;;;;;;5006038;28;20113;-75
2023/02/22 10:43:42;;;;;;;10.13;4.63;;;11.30;99.90;;;;;;4994673;28;20034;-75
2023/02/22 10:46:14;;;;;;;17.55;4.78;;;11.50;99.90;;;;;;4980029;28;20048;-74
2023/02/22 10:48:44;;;;;;;9.30;4.53;;;11.40;99.90;;;;;;4990654;28;20025;-74
2023/02/22 10:51:10;;;;;;;9.30;4.40;;;11.50;99.90;;;;;;4986557;28;20068;-76
2023/02/22 10:53:37;;;;;;;11.73;4.55;;;11.80;99.90;;;;;;5007262;28;20080;-75
2023/02/22 10:56:21;;;;;;;13.25;4.03;;;12.20;99.90;;;;;;4989627;28;20041;-76
2023/02/22 10:59:01;;;;;;;9.20;4.78;;;12.00;99.90;;;;;;5008646;28;20034;-74
2023/02/22 11:01:29;;;;;;;11.80;3.83;;;12.40;99.90;;;;;;4986588;28;20030;-74
2023/02/22 11:04:13;;;;;;;9.85;4.63;;;12.90;99.90;;;;;;5010019;28;20030;-74
2023/02/22 11:06:44;;;;;;;14.57;6.60;;;12.70;99.90;;;;;;4987066;28;20449;-73
2023/02/22 11:09:16;;;;;;;9.95;4.38;;;13.40;99.90;;;;;;5011820;28;20038;-75
2023/02/22 11:11:46;;;;;;;7.35;4.40;;;13.20;99.90;;;;;;4978335;28;20045;-76
2023/02/22 11:14:32;;;;;;;9.85;4.43;;;13.20;99.90;;;;;;4973482;28;20035;-76
2023/02/22 11:17:00;;;;;;;8.93;4.25;;;12.90;99.90;;;;;;4998931;28;20502;-75
2023/02/22 11:19:31;;;;;;;17.13;4.97;;;14.00;99.90;;;;;;4994449;28;20030;-75
2023/02/22 11:22:18;;;;;;;12.70;5.03;;;14.70;99.90;;;;;;5000679;28;20026;-78
2023/02/22 11:25:01;;;;;;;6.82;3.88;;;14.10;99.90;;;;;;4993610;28;20136;-75
2023/02/22 11:27:45;;;;;;;11.95;5.35;;;13.70;99.90;;;;;;4959259;28;20034;-71
2023/02/22 11:30:20;;;;;;;10.50;4.45;;;15.80;99.90;;;;;;4978826;28;20026;-73
2023/02/22 11:32:56;;;;;;;9.30;4.45;;;15.90;97.30;;;;;;4981110;28;20050;-74
2023/02/22 11:35:28;;;;;;;7.65;3.75;;;16.20;96.10;;;;;;4979148;28;20026;-72
2023/02/22 11:38:19;;;;;;;13.15;4.53;;;16.40;94.80;;;;;;5004343;28;20038;-72
2023/02/22 11:41:02;;;;;;;11.55;4.40;;;15.10;96.40;;;;;;4990337;28;20060;-72
2023/02/22 11:43:30;;;;;;;8.30;3.90;;;15.70;96.80;;;;;;4999297;28;20042;-74
2023/02/22 11:46:05;;;;;;;8.43;3.95;;;16.30;95.30;;;;;;4995297;28;20034;-74
2023/02/22 11:48:37;;;;;;;9.85;4.38;;;16.30;96.70;;;;;;4988527;28;20092;-75
2023/02/22 11:51:29;;;;;;;11.77;4.55;;;15.70;95.50;;;;;;4988013;28;20088;-74
2023/02/22 11:54:10;;;;;;;11.85;4.25;;;16.10;94.40;;;;;;5009190;28;20478;-73
2023/02/22 11:56:44;;;;;;;14.98;4.07;;;15.40;95.20;;;;;;4998627;28;20053;-73
2023/02/22 12:00:14;;;;;;;7.82;3.35;;;15.80;96.30;;;;;;5010517;28;20048;-74
2023/02/22 12:03:00;;;;;;;13.35;5.22;;;16.40;94.90;;;;;;4995265;28;20034;-72
2023/02/22 12:05:58;;;;;;;10.07;3.58;;;15.90;94.00;;;;;;4993355;28;20029;-72
2023/02/22 12:08:45;;;;;;;7.20;4.15;;;15.30;95.90;;;;;;4997338;28;20037;-71
2023/02/22 12:11:23;;;;;;;9.50;4.38;;;15.50;96.50;;;;;;5001363;28;20034;-71
2023/02/22 12:14:40;;;;;;;8.73;4.28;;;16.10;94.90;;;;;;4990812;28;20037;-71
2023/02/22 12:17:19;;;;;;;13.30;3.60;;;17.10;91.60;;;;;;4999951;28;20820;-71
2023/02/22 12:20:09;;;;;;;8.70;3.80;;;16.30;92.90;;;;;;4972423;28;20038;-70
2023/02/22 12:22:43;;;;;;;7.03;3.67;;;16.40;92.80;;;;;;4978567;28;20028;-72
2023/02/22 12:25:23;;;;;;;14.77;3.65;;;17.60;92.40;;;;;;4977164;28;20439;-73
2023/02/22 12:27:58;;;;;;;8.73;3.78;;;17.30;91.90;;;;;;5002884;28;20478;-71
2023/02/22 12:30:37;;;;;;;7.47;3.50;;;17.30;91.70;;;;;;4987389;28;20042;-70
2023/02/22 12:33:15;;;;;;;15.25;4.28;;;18.20;91.10;;;;;;4986280;28;20855;-70
2023/02/22 12:35:50;;;;;;;7.07;3.88;;;18.10;89.60;;;;;;4990252;28;20037;-70
2023/02/22 12:38:39;;;;;;;8.82;3.50;;;16.90;90.40;;;;;;4970376;28;20038;-70
2023/02/22 12:41:30;;;;;;;7.72;3.70;;;15.90;93.80;;;;;;4985213;28;20026;-70
2023/02/22 12:44:13;;;;;;;9.60;4.00;;;17.20;92.20;;;;;;4990187;28;20485;-71
2023/02/22 12:46:53;;;;;;;8.38;4.18;;;16.50;92.40;;;;;;4981341;28;20034;-69
2023/02/22 12:49:34;;;;;;;11.85;4.47;;;16.70;94.60;;;;;;4970757;28;20038;-72
2023/02/22 12:52:17;;;;;;;9.98;4.47;;;17.00;93.00;;;;;;4998340;28;20041;-71
2023/02/22 12:55:14;;;;;;;7.25;4.57;;;17.20;93.00;;;;;;4989174;28;20038;-71
2023/02/22 12:57:55;;;;;;;10.00;4.82;;;16.90;93.90;;;;;;4977869;28;20035;-70
2023/02/22 13:00:44;;;;;;;7.22;3.53;;;16.70;93.40;;;;;;4990997;28;20426;-70
2023/02/22 13:03:37;;;;;;;10.68;3.97;;;16.70;93.80;;;;;;5002283;28;20361;-70
2023/02/22 13:06:27;;;;;;;8.23;4.75;;;17.10;93.30;;;;;;5001941;28;20076;-70
2023/02/22 13:09:23;;;;;;;9.88;4.93;;;17.20;93.40;;;;;;4984694;28;20034;-70
2023/02/22 13:12:03;;;;;;;20.90;4.43;;;16.50;94.80;;;;;;4995733;28;20042;-69
2023/02/22 13:14:58;;;;;;;10.63;3.95;;;16.60;94.80;;;;;;4943179;28;20517;-71
2023/02/22 13:17:57;;;;;;;7.78;3.88;;;16.90;94.90;;;;;;4986669;28;20113;-73
2023/02/22 13:20:40;;;;;;;13.27;4.68;;;17.50;93.70;;;;;;4990314;28;20109;-73
2023/02/22 13:24:02;;;;;;;18.20;5.40;;;18.60;91.20;;;;;;4985494;28;20049;-71
2023/02/22 13:27:03;;;;;;;13.73;4.68;;;19.40;89.90;;;;;;5000582;28;20042;-72